Airfield :
LOGIN :

Register | Disclaimer

   EN    FR    IT 

 










Legend :    VFR   Marginal VFR   IFR   Intensive IFR   Very Intensive IFR
Visi :
Ceiling :
>= 8 km
>= 3000ft
5 to 8 km
1000 to 3000 ft
1500m to 5 km
500 to 1000 ft
800 to 1500m
200 to 500 ft
< 800m
< 200 ft
Symbols :   Thunderstorms  Fog  Heavy snow  Heavy precipitations  Wind > 20 kt
SIGMETs :     Misc.  Thunderstorms  Icing  Turbulence  Mountain Waves  Volcanic Ashes






- Airport Elevation : 1568 ft


ETSB - Büchel AB

CURRENT METAR :
  • 191020Z 23017G30KT 5000 -SNPL BR BKN002 OVC006 M00/M00 Q1010 RESN AMB YLO TEMPO AMB

EXPIRED METARs :
  • 191006Z 22019G30KT 2000 SNPL BR OVC002 M00/M00 Q1010 AMB YLO TEMPO AMB
  • 190949Z 22020KT 1000 SN VV002 M00/M00 Q1010 AMB YLO TEMPO AMB
  • 190920Z 23020G30KT 0800 +SN BKN005 OVC040 00/M01 Q1011 AMB YLO TEMPO AMB
  • 190900Z 23021KT 2500 SN BR BKN007 BKN012 OVC050 00/M01 Q1011 YLO YLO
  • 190840Z 23020G32KT 4500 -PL BR BKN007 OVC012 01/M01 Q1011 GRN GRN BECMG YLO
  • 190820Z 22020KT 7000 -RASN BKN007 OVC012 01/M01 Q1011 GRN GRN BECMG YLO
  • 190754Z 23020G34KT 4500 -SNRA BR BKN007 OVC012 01/M01 Q1012 GRN

TAF AMD TAF ETSB
Valid from the 19 at 09:00 until the 19 at 18:00 UTC


190951Z 1909/1918 24020G30KT 4000 -RADZ BKN004
TEMPO 1909/1912 24025G35KT 1000 SN VV002
TEMPO 1914/1918 23025G35KT 0500 RA OVC001 BY ETGL



MET'MAP, your aeronautical weather chart ! - Copyright ORBIFLY December 2007 - Disclaimer

ORBIFLY MET'MAP TEAM :

Programming & Development : Alexandra Zaïnal
Concept & original design : Baudouin d'Aumeries
Assistance for programming : Marc-Olivier Méhu
Technical & hardware support : Manuel Goepfert

Contact : metmap@orbifly.com




SOURCES & CREDITS :

   NOAA